Airfield :







YOU CAN JOIN US ON...

 
LOGIN :

Register | Disclaimer

   EN    FR    IT 

 









Legend :    VFR   Marginal VFR   IFR   Intensive IFR   Very Intensive IFR
Visi :
Ceiling :
>= 8 km
>= 3000ft
5 to 8 km
1000 to 3000 ft
1500m to 5 km
500 to 1000 ft
800 to 1500m
200 to 500 ft
< 800m
< 200 ft
Symbols :   Thunderstorms  Fog  Heavy snow  Heavy precipitations  Wind > 20 kt






- Airport Elevation : 23 ft
- IATA code : STT


TIST - King

CURRENT METAR :
  • 091053Z 08007KT 10SM OVC019 28/24 A3002 RMK AO2 RAE0959 SLP167 P0000 T02780239

EXPIRED METARs :
  • 091040Z AUTO 08007KT 10SM BKN018 BKN041 OVC050 28/24 A3002 RMK AO2 RAE0959 P0000 T02780239
  • 091000Z AUTO 08007KT 10SM FEW028 BKN047 OVC055 27/23 A3002 RMK AO2 RAE0959 P0000 T02720233
  • 090953Z AUTO 09009KT 8SM -RA BKN028 BKN035 OVC047 27/23 A3002 RMK AO2 RAB48 SLP165 P0000 T02720228
  • 090853Z AUTO 07005KT 10SM OVC015 27/22 A3000 RMK AO2 SLP160 T02720222 51002
  • 090833Z AUTO 07005KT 10SM OVC015 28/22 A3000 RMK AO2 T02780217
  • 090805Z AUTO 07004KT 10SM OVC014 27/22 A3000 RMK AO2 T02720222
  • 090753Z AUTO 10007KT 10SM OVC015 27/22 A3000 RMK AO2 SLP159 T02720222

TAF TIST
Valid from the 09 at 06:00 until the 10 at 06:00 UTC


090533Z 0906/1006 08008KT P6SM VCSH SCT025
FM091400 12015KT P6SM FEW025 SCT035
FM092300 09010KT P6SM FEW030
TJZS FIR / North America



MET'MAP, your aeronautical weather chart ! - Copyright ORBIFLY December 2007 - Disclaimer

ORBIFLY MET'MAP TEAM :

Programming & Development : Alexandra Zaïnal
Concept & original design : Baudouin d'Aumeries
Assistance for programming : Marc-Olivier Méhu
Technical & hardware support : Manuel Goepfert

Contact : metmap@orbifly.com




SOURCES & CREDITS :

   NOAA